Погода Жалисна 2 недели

Сан-Паулу, Бразилия

21 июля-03 августа
  • 21июля
    Сегодня
    +17°
    +31°
    Ясно и безоблачно
    ВремяПогодаТемператураВлажностьДавлениеВетер, м/сВероятность осадков
    00:00Ясно и безоблачно+21°C50 %727 мм3.5 м/с5 %
    03:00Ясно и безоблачно+19°C53 %727 мм3.3 м/с5 %
    06:00Ясно и безоблачно+18°C56 %727 мм3.2 м/с5 %
    09:00Ясно и безоблачно+21°C45 %729 мм3.3 м/с5 %
    12:00Ясно и безоблачно+29°C27 %729 мм3.8 м/с5 %
    15:00Ясно и безоблачно+31°C23 %727 мм2.2 м/с5 %
    18:00Ясно и безоблачно+28°C32 %727 мм2.1 м/с5 %
    21:00Ясно и безоблачно+24°C40 %727 мм2.2 м/с5 %
  • 22июля
    Понедельник
    +17°
    +32°
    Ясно и безоблачно
    ВремяПогодаТемператураВлажностьДавлениеВетер, м/сВероятность осадков
    00:00Ясно и безоблачно+21°C41 %728 мм2.5 м/с5 %
    03:00Ясно и безоблачно+20°C42 %727 мм2.7 м/с5 %
    06:00Ясно и безоблачно+18°C50 %727 мм2.9 м/с5 %
    09:00Ясно и безоблачно+22°C44 %729 мм2.8 м/с5 %
    12:00Ясно и безоблачно+29°C24 %729 мм2.0 м/с5 %
    15:00Ясно и безоблачно+31°C23 %728 мм1.3 м/с5 %
    18:00Ясно и безоблачно+28°C31 %727 мм1.8 м/с5 %
    21:00Ясно и безоблачно+25°C39 %728 мм2.1 м/с5 %
  • 23июля
    Вторник
    +19°
    +32°
    Ясно и безоблачно
    ВремяПогодаТемператураВлажностьДавлениеВетер, м/сВероятность осадков
    00:00Ясно и безоблачно+21°C40 %728 мм3.2 м/с5 %
    03:00Ясно и безоблачно+21°C44 %727 мм3.4 м/с5 %
    06:00Ясно и безоблачно+19°C51 %728 мм3.1 м/с5 %
    09:00Ясно и безоблачно+21°C39 %729 мм3.8 м/с5 %
    12:00Ясно и безоблачно+30°C25 %730 мм3.9 м/с5 %
    15:00Ясно и безоблачно+31°C23 %728 мм2.4 м/с5 %
    18:00Ясно и безоблачно+28°C33 %727 мм2.4 м/с5 %
    21:00Ясно и безоблачно+25°C38 %728 мм2.4 м/с5 %
  • 24июля
    Среда
    +19°
    +32°
    Практически безоблачно
    ВремяПогодаТемператураВлажностьДавлениеВетер, м/сВероятность осадков
    00:00Ясно и безоблачно+22°C37 %727 мм2.6 м/с5 %
    03:00Небольшая облачность+20°C43 %727 мм2.6 м/с5 %
    06:00Ясно и безоблачно+20°C49 %727 мм4.3 м/с5 %
    09:00Ясно и безоблачно+23°C39 %729 мм3.5 м/с5 %
    12:00Практически безоблачно+30°C24 %730 мм4.7 м/с5 %
    15:00Практически безоблачно+32°C21 %727 мм2.8 м/с5 %
    18:00Ясно и безоблачно+29°C26 %727 мм2.6 м/с5 %
    21:00Ясно и безоблачно+25°C32 %727 мм2.4 м/с5 %
  • 25июля
    Четверг
    +20°
    +33°
    Ясно и безоблачно
    ВремяПогодаТемператураВлажностьДавлениеВетер, м/сВероятность осадков
    00:00Ясно и безоблачно+22°C38 %728 мм2.4 м/с5 %
    03:00Ясно и безоблачно+22°C45 %727 мм2.8 м/с5 %
    06:00Ясно и безоблачно+20°C51 %727 мм3.2 м/с5 %
    09:00Ясно и безоблачно+23°C38 %729 мм3.2 м/с5 %
    12:00Ясно и безоблачно+31°C22 %729 мм4.0 м/с5 %
    15:00Ясно и безоблачно+32°C20 %726 мм1.4 м/с5 %
    18:00Ясно и безоблачно+30°C29 %726 мм1.5 м/с5 %
    21:00Ясно и безоблачно+25°C38 %726 мм1.8 м/с5 %
Мы используем cookies
Соглашаюсь